Terminal Aerodrome Forecast
Issued by NWS

Home | Current Version | Previous Version | Text Only | Print | Product List | Glossary On
Versions: 1 2 3 4 5 6 7 8 9 10 11 12 13 14
000
FTUS46 KSGX 242332
TAFONT
TAF
KONT 242332Z 2500/2606 27007KT P6SM FEW060 SCT110 BKN150
     FM250400 VRB04KT P6SM SCT150
     FM252000 25010KT P6SM SCT150=

USA.gov is the U.S. government's official web portal to all federal, state and local government web resources and services.